Time;durP1;ratioP1;P1;durP2;ratioP2;P2;SDS_P1;SDS_P2;PMS_P1;PMS_P2;Temp;Humidity;BMP_temperature;BMP_pressure;BME280_temperature;BME280_humidity;BME280_pressure;Samples;Min_cycle;Max_cycle;Signal;HPM_P1;HPM_P2
2022/03/13 00:02:23;;;;;;;17.85;13.20;;;9.40;99.90;;;;;;5074324;28;20237;-48
2022/03/13 00:04:49;;;;;;;20.45;14.73;;;9.40;99.90;;;;;;5074191;28;20177;-47
2022/03/13 00:07:21;;;;;;;26.17;15.32;;;9.40;99.90;;;;;;5074218;28;20162;-48
2022/03/13 00:09:51;;;;;;;40.78;21.33;;;9.30;99.90;;;;;;5074095;28;20249;-48
2022/03/13 00:12:31;;;;;;;23.88;13.98;;;9.30;99.90;;;;;;5074150;28;20575;-48
2022/03/13 00:15:01;;;;;;;28.08;16.52;;;9.30;99.90;;;;;;5074287;28;20169;-49
2022/03/13 00:17:29;;;;;;;67.43;36.70;;;9.20;99.90;;;;;;5074121;28;20178;-47
2022/03/13 00:19:59;;;;;;;41.42;23.90;;;9.10;99.90;;;;;;5074071;28;20202;-47
2022/03/13 00:22:25;;;;;;;34.47;22.23;;;9.10;99.90;;;;;;5073914;28;20170;-51
2022/03/13 00:24:50;;;;;;;31.95;20.55;;;9.10;99.90;;;;;;5073853;28;20172;-47
2022/03/13 00:27:16;;;;;;;34.50;20.92;;;9.20;99.90;;;;;;5073794;28;20217;-48
2022/03/13 00:29:41;;;;;;;24.83;16.02;;;9.10;99.90;;;;;;5073814;28;20169;-47
2022/03/13 00:32:08;;;;;;;34.45;21.70;;;9.10;99.90;;;;;;5073917;28;20173;-47
2022/03/13 00:34:34;;;;;;;37.05;22.75;;;9.10;99.90;;;;;;5073754;28;20245;-48
2022/03/13 00:37:00;;;;;;;33.42;20.90;;;9.10;99.90;;;;;;5073616;28;20722;-48
2022/03/13 00:39:26;;;;;;;27.15;17.02;;;9.00;99.90;;;;;;5073598;28;20166;-48
2022/03/13 00:41:52;;;;;;;21.60;13.25;;;9.00;99.90;;;;;;5073725;28;20175;-48
2022/03/13 00:44:18;;;;;;;24.48;15.77;;;9.00;99.90;;;;;;5073714;28;20169;-48
2022/03/13 00:46:43;;;;;;;29.52;17.55;;;9.00;99.90;;;;;;5073259;28;20758;-48
2022/03/13 00:49:09;;;;;;;28.75;17.70;;;8.90;99.90;;;;;;5073013;28;20173;-48
2022/03/13 00:51:35;;;;;;;24.90;17.23;;;8.90;99.90;;;;;;5073929;28;20162;-48
2022/03/13 00:54:01;;;;;;;17.55;12.27;;;8.80;99.90;;;;;;5073556;28;20534;-48
2022/03/13 00:56:26;;;;;;;18.83;12.45;;;8.80;99.90;;;;;;5073201;28;20208;-48
2022/03/13 00:58:52;;;;;;;16.90;12.30;;;8.70;99.90;;;;;;5073410;28;20176;-48
2022/03/13 01:01:18;;;;;;;17.98;12.65;;;8.70;99.90;;;;;;5072824;28;20268;-47
2022/03/13 01:03:43;;;;;;;16.80;11.50;;;8.70;99.90;;;;;;5071229;28;20203;-48
2022/03/13 01:06:09;;;;;;;19.92;11.80;;;8.60;99.90;;;;;;5072761;28;20220;-47
2022/03/13 01:08:35;;;;;;;17.20;10.82;;;8.50;99.90;;;;;;5073627;28;20166;-49
2022/03/13 01:11:03;;;;;;;16.83;10.98;;;8.40;99.90;;;;;;5073520;28;20205;-48
2022/03/13 01:13:30;;;;;;;18.80;11.02;;;8.40;99.90;;;;;;5073113;28;20173;-49
2022/03/13 01:16:10;;;;;;;17.63;11.02;;;8.20;99.90;;;;;;5073325;28;20695;-49
2022/03/13 01:18:40;;;;;;;15.88;11.02;;;8.10;99.90;;;;;;5073053;28;20196;-48
2022/03/13 01:21:06;;;;;;;17.35;12.23;;;8.20;99.90;;;;;;5073208;28;20181;-48
2022/03/13 01:23:31;;;;;;;17.05;11.45;;;8.20;99.90;;;;;;5073407;28;20640;-48
2022/03/13 01:26:36;;;;;;;16.73;11.48;;;8.20;99.90;;;;;;5072895;28;20166;-49
2022/03/13 01:29:09;;;;;;;16.15;10.98;;;8.10;99.90;;;;;;4991827;28;20255;-50
2022/03/13 01:31:37;;;;;;;16.80;10.98;;;8.10;99.90;;;;;;5062668;28;20662;-49
2022/03/13 01:34:05;;;;;;;15.80;11.52;;;8.20;99.90;;;;;;5073133;28;20662;-49
2022/03/13 01:36:31;;;;;;;22.80;12.07;;;8.10;99.90;;;;;;5072950;28;20271;-49
2022/03/13 01:38:59;;;;;;;17.65;11.38;;;8.00;99.90;;;;;;5072589;28;20170;-50
2022/03/13 01:41:28;;;;;;;16.65;11.55;;;8.00;99.90;;;;;;5072900;28;20238;-49
2022/03/13 01:43:57;;;;;;;20.92;11.25;;;7.90;99.90;;;;;;5072795;28;20258;-49
2022/03/13 01:46:23;;;;;;;17.33;11.35;;;7.80;99.90;;;;;;5072393;28;20674;-49
2022/03/13 01:49:03;;;;;;;18.83;11.60;;;7.80;99.90;;;;;;5072455;28;20196;-50
2022/03/13 01:51:30;;;;;;;16.63;10.90;;;7.70;99.90;;;;;;5072415;28;20524;-49
2022/03/13 01:54:02;;;;;;;17.17;11.52;;;7.70;99.90;;;;;;5072719;28;20170;-49
2022/03/13 01:56:29;;;;;;;20.50;10.82;;;7.70;99.90;;;;;;5072295;28;20209;-49
2022/03/13 01:58:56;;;;;;;16.58;10.60;;;7.70;99.90;;;;;;5072381;28;20166;-50
2022/03/13 02:01:25;;;;;;;16.95;11.38;;;7.70;99.90;;;;;;5072264;28;20202;-50
2022/03/13 02:03:52;;;;;;;19.17;11.82;;;7.60;99.90;;;;;;5072304;28;20214;-49
2022/03/13 02:06:20;;;;;;;18.33;11.73;;;7.50;99.90;;;;;;5072316;28;20274;-49
2022/03/13 02:08:47;;;;;;;16.55;10.45;;;7.50;99.90;;;;;;5072466;28;20280;-48
2022/03/13 02:11:17;;;;;;;17.88;11.38;;;7.50;99.90;;;;;;5072492;28;20169;-47
2022/03/13 02:13:45;;;;;;;15.00;10.90;;;7.40;99.90;;;;;;5072394;28;20223;-47
2022/03/13 02:16:10;;;;;;;18.75;10.82;;;7.50;99.90;;;;;;5071727;28;20209;-47
2022/03/13 02:18:39;;;;;;;15.73;10.38;;;7.60;99.90;;;;;;5072313;28;20162;-48
2022/03/13 02:21:05;;;;;;;14.45;10.13;;;7.60;99.90;;;;;;5072308;28;20162;-47
2022/03/13 02:23:31;;;;;;;17.30;11.05;;;7.60;99.90;;;;;;5072395;28;20253;-47
2022/03/13 02:25:59;;;;;;;14.68;10.57;;;7.60;99.90;;;;;;5071995;28;20249;-48
2022/03/13 02:28:27;;;;;;;16.13;10.45;;;7.50;99.90;;;;;;5072040;28;20227;-48
2022/03/13 02:30:57;;;;;;;15.70;10.93;;;7.50;99.90;;;;;;5071893;28;20256;-49
2022/03/13 02:33:23;;;;;;;13.68;10.07;;;7.50;99.90;;;;;;5072165;28;20186;-47
2022/03/13 02:36:01;;;;;;;15.38;10.30;;;7.50;99.90;;;;;;5071830;28;20201;-48
2022/03/13 02:38:28;;;;;;;14.82;10.43;;;7.50;99.90;;;;;;5071915;28;20635;-48
2022/03/13 02:40:55;;;;;;;16.02;10.10;;;7.40;99.90;;;;;;5071886;28;20232;-48
2022/03/13 02:43:21;;;;;;;15.32;9.30;;;7.20;99.90;;;;;;5071886;28;20158;-49
2022/03/13 02:45:47;;;;;;;13.45;9.60;;;7.20;99.90;;;;;;5071684;28;20170;-48
2022/03/13 02:48:16;;;;;;;17.00;10.02;;;7.10;99.90;;;;;;5072043;28;20216;-48
2022/03/13 02:50:42;;;;;;;14.77;9.05;;;7.10;99.90;;;;;;5072005;28;20180;-49
2022/03/13 02:53:09;;;;;;;13.95;9.10;;;7.00;99.90;;;;;;5071771;28;20498;-49
2022/03/13 02:55:34;;;;;;;12.30;8.63;;;7.00;99.90;;;;;;5072176;28;20205;-50
2022/03/13 02:58:00;;;;;;;13.65;8.20;;;7.00;99.90;;;;;;5071865;28;20590;-48
2022/03/13 03:00:58;;;;;;;13.65;8.25;;;7.00;99.90;;;;;;5071607;28;20162;-49
2022/03/13 03:03:24;;;;;;;12.20;8.25;;;7.00;99.90;;;;;;5071728;28;20182;-49
2022/03/13 03:05:50;;;;;;;14.20;8.38;;;6.90;99.90;;;;;;5071622;28;20279;-49
2022/03/13 03:08:16;;;;;;;15.32;8.25;;;6.90;99.90;;;;;;5071977;28;20621;-48
2022/03/13 03:10:42;;;;;;;15.02;9.05;;;6.90;99.90;;;;;;5071527;28;20271;-50
2022/03/13 03:13:08;;;;;;;13.20;8.73;;;6.80;99.90;;;;;;5071810;28;20269;-48
2022/03/13 03:15:34;;;;;;;14.23;8.52;;;6.90;99.90;;;;;;5071741;28;20280;-49
2022/03/13 03:18:01;;;;;;;12.63;8.32;;;6.90;99.90;;;;;;5071429;28;20209;-48
2022/03/13 03:20:27;;;;;;;14.85;9.02;;;6.90;99.90;;;;;;5071534;28;20154;-48
2022/03/13 03:22:53;;;;;;;13.73;8.65;;;6.90;99.90;;;;;;5071343;28;20654;-48
2022/03/13 03:25:26;;;;;;;12.05;8.30;;;6.90;99.90;;;;;;5071458;28;20643;-49
2022/03/13 03:27:53;;;;;;;13.23;8.20;;;6.90;99.90;;;;;;5073387;28;20174;-49
2022/03/13 03:30:20;;;;;;;13.30;7.82;;;6.90;99.90;;;;;;5075129;28;20177;-49
2022/03/13 03:32:47;;;;;;;11.10;8.15;;;6.90;99.90;;;;;;5075333;28;20196;-48
2022/03/13 03:35:13;;;;;;;12.93;8.43;;;6.90;99.90;;;;;;5074955;28;20181;-48
2022/03/13 03:37:38;;;;;;;11.63;7.97;;;6.90;99.90;;;;;;5075012;28;20303;-48
2022/03/13 03:40:05;;;;;;;14.68;7.95;;;7.00;99.90;;;;;;5075346;28;20646;-49
2022/03/13 03:42:31;;;;;;;13.50;8.75;;;7.00;99.90;;;;;;5075221;28;20248;-48
2022/03/13 03:44:57;;;;;;;11.73;8.52;;;7.10;99.90;;;;;;5074858;28;20736;-50
2022/03/13 03:47:23;;;;;;;11.50;8.10;;;7.10;99.90;;;;;;5074690;28;20305;-48
2022/03/13 03:49:48;;;;;;;12.70;7.97;;;7.00;99.90;;;;;;5075008;28;20178;-49
2022/03/13 03:52:14;;;;;;;14.00;8.10;;;7.20;99.90;;;;;;5074721;28;20166;-49
2022/03/13 03:54:39;;;;;;;14.13;8.35;;;7.10;99.90;;;;;;5074592;28;20169;-50
2022/03/13 03:57:05;;;;;;;13.98;8.25;;;7.10;99.90;;;;;;5074915;28;20209;-48
2022/03/13 03:59:31;;;;;;;13.82;7.70;;;7.10;99.90;;;;;;5074936;28;20166;-49
2022/03/13 04:01:56;;;;;;;11.20;7.82;;;7.10;99.90;;;;;;5074654;28;20261;-48
2022/03/13 04:04:22;;;;;;;14.75;9.30;;;7.10;99.90;;;;;;5074732;28;20194;-50
2022/03/13 04:06:47;;;;;;;10.65;8.00;;;7.20;99.90;;;;;;5074453;28;20185;-49
2022/03/13 04:09:13;;;;;;;11.23;7.57;;;7.10;99.90;;;;;;5074395;28;20245;-49
2022/03/13 04:11:40;;;;;;;13.90;8.40;;;7.10;99.90;;;;;;5074630;28;20197;-49
2022/03/13 04:14:06;;;;;;;11.40;7.72;;;7.20;99.90;;;;;;5074604;28;20184;-48
2022/03/13 04:16:32;;;;;;;13.00;8.30;;;7.10;99.90;;;;;;5074533;28;20346;-50
2022/03/13 04:18:57;;;;;;;12.55;7.85;;;7.20;99.90;;;;;;5074339;28;20200;-48
2022/03/13 04:21:23;;;;;;;12.35;8.07;;;7.20;99.90;;;;;;5074226;28;20249;-48
2022/03/13 04:23:49;;;;;;;12.50;7.85;;;7.20;99.90;;;;;;5074465;28;20165;-47
2022/03/13 04:26:15;;;;;;;11.98;8.07;;;7.20;99.90;;;;;;5074129;28;20513;-47
2022/03/13 04:28:41;;;;;;;13.23;8.48;;;7.20;99.90;;;;;;5056212;28;20632;-48
2022/03/13 04:31:08;;;;;;;12.05;8.07;;;7.20;99.90;;;;;;5073946;28;20166;-47
2022/03/13 04:33:36;;;;;;;16.55;8.63;;;7.00;99.90;;;;;;5074243;28;20169;-48
2022/03/13 04:36:03;;;;;;;13.32;8.02;;;7.10;99.90;;;;;;5074082;28;20743;-48
2022/03/13 04:38:29;;;;;;;15.77;8.60;;;6.80;99.90;;;;;;5073732;28;20170;-48
2022/03/13 04:40:55;;;;;;;13.73;8.80;;;7.00;99.90;;;;;;5073739;28;20166;-48
2022/03/13 04:43:22;;;;;;;13.43;8.57;;;7.00;99.90;;;;;;5073705;28;20193;-47
2022/03/13 04:45:49;;;;;;;12.07;8.23;;;7.00;99.90;;;;;;5073785;28;20178;-47
2022/03/13 04:48:16;;;;;;;15.55;8.15;;;7.00;99.90;;;;;;5073600;28;20583;-47
2022/03/13 04:50:42;;;;;;;12.73;7.88;;;7.10;99.90;;;;;;5073831;28;20166;-50
2022/03/13 04:53:07;;;;;;;15.43;8.20;;;7.00;99.90;;;;;;5073780;28;20219;-47
2022/03/13 04:55:33;;;;;;;11.48;8.27;;;6.90;99.90;;;;;;5073958;28;20196;-49
2022/03/13 04:57:58;;;;;;;15.00;8.30;;;7.00;99.90;;;;;;5073356;28;20170;-49
2022/03/13 05:00:26;;;;;;;12.93;8.05;;;6.90;99.90;;;;;;5073678;28;20170;-49
2022/03/13 05:02:52;;;;;;;12.20;7.47;;;7.00;99.90;;;;;;5073628;28;20192;-49
2022/03/13 05:05:18;;;;;;;14.90;8.88;;;7.00;99.90;;;;;;5073282;28;20631;-49
2022/03/13 05:07:44;;;;;;;12.65;7.90;;;7.10;99.90;;;;;;5073317;28;20173;-50
2022/03/13 05:10:11;;;;;;;11.00;7.80;;;7.10;99.90;;;;;;5073348;28;20173;-49
2022/03/13 05:12:36;;;;;;;14.27;8.05;;;7.10;99.90;;;;;;5073168;28;20166;-49
2022/03/13 05:15:03;;;;;;;12.13;7.82;;;7.10;99.90;;;;;;5073400;28;20311;-49
2022/03/13 05:17:28;;;;;;;11.57;8.20;;;7.20;99.90;;;;;;5073078;28;20174;-49
2022/03/13 05:19:55;;;;;;;13.77;7.53;;;7.20;99.90;;;;;;5073065;28;20154;-49
2022/03/13 05:22:20;;;;;;;11.30;6.88;;;7.20;99.90;;;;;;5072901;28;20578;-48
2022/03/13 05:24:46;;;;;;;11.52;7.30;;;7.20;99.90;;;;;;5073177;28;20161;-49
2022/03/13 05:27:12;;;;;;;11.07;8.20;;;7.20;99.90;;;;;;5072914;28;20605;-49
2022/03/13 05:29:37;;;;;;;11.32;7.43;;;7.20;99.90;;;;;;5072810;28;20177;-48
2022/03/13 05:32:03;;;;;;;11.00;6.75;;;7.20;99.90;;;;;;5073334;28;20583;-49
2022/03/13 05:34:29;;;;;;;12.50;7.63;;;7.30;99.90;;;;;;5072663;28;20635;-48
2022/03/13 05:36:54;;;;;;;11.98;7.80;;;7.30;99.90;;;;;;5072598;28;20209;-49
2022/03/13 05:39:20;;;;;;;9.65;7.28;;;7.20;99.90;;;;;;5072651;28;20194;-48
2022/03/13 05:41:45;;;;;;;13.70;7.18;;;7.20;99.90;;;;;;5072537;28;20560;-48
2022/03/13 05:44:12;;;;;;;18.25;7.32;;;7.30;99.90;;;;;;5072581;28;20177;-49
2022/03/13 05:46:39;;;;;;;12.57;8.23;;;7.30;99.90;;;;;;5072500;28;20634;-48
2022/03/13 05:49:05;;;;;;;14.35;7.30;;;7.30;99.90;;;;;;5072977;28;20628;-50
2022/03/13 05:51:36;;;;;;;11.43;7.53;;;7.30;99.90;;;;;;5072305;28;20196;-50
2022/03/13 05:54:04;;;;;;;11.82;7.70;;;7.30;99.90;;;;;;5072927;28;20194;-50
2022/03/13 05:56:30;;;;;;;10.93;7.57;;;7.20;99.90;;;;;;5072220;28;20586;-50
2022/03/13 05:58:56;;;;;;;12.68;7.47;;;7.20;99.90;;;;;;5072606;28;20169;-50
2022/03/13 06:01:21;;;;;;;10.57;6.97;;;7.30;99.90;;;;;;5054487;28;20527;-50
2022/03/13 06:03:46;;;;;;;11.48;7.45;;;7.30;99.90;;;;;;5072334;28;20616;-50
2022/03/13 06:06:14;;;;;;;13.38;7.78;;;7.30;99.90;;;;;;5072299;28;20183;-48
2022/03/13 06:08:39;;;;;;;12.43;7.78;;;7.30;99.90;;;;;;5072134;28;20166;-50
2022/03/13 06:11:05;;;;;;;12.93;7.50;;;7.40;99.90;;;;;;5072679;28;20162;-48
2022/03/13 06:13:30;;;;;;;13.13;8.45;;;7.40;99.90;;;;;;5072408;28;20223;-49
2022/03/13 06:15:59;;;;;;;15.23;8.45;;;7.40;99.90;;;;;;5072041;28;20202;-48
2022/03/13 06:18:27;;;;;;;13.00;7.72;;;7.40;99.90;;;;;;5072244;28;20181;-50
2022/03/13 06:20:53;;;;;;;12.00;7.70;;;7.40;99.90;;;;;;5072327;28;20255;-48
2022/03/13 06:23:18;;;;;;;11.27;7.38;;;7.50;99.90;;;;;;5072275;28;20190;-48
2022/03/13 06:25:44;;;;;;;11.80;8.23;;;7.40;99.90;;;;;;5071948;28;20166;-48
2022/03/13 06:28:10;;;;;;;12.95;8.05;;;7.50;99.90;;;;;;5071629;28;20173;-48
2022/03/13 06:30:36;;;;;;;10.77;7.00;;;7.50;99.90;;;;;;5072076;28;20174;-48
2022/03/13 06:33:02;;;;;;;11.10;7.40;;;7.50;99.70;;;;;;5072221;28;20265;-48
2022/03/13 06:35:28;;;;;;;10.88;7.47;;;7.40;99.60;;;;;;5071828;28;20254;-47
2022/03/13 06:37:54;;;;;;;12.63;8.18;;;7.50;99.20;;;;;;5071901;28;20185;-48
2022/03/13 06:40:21;;;;;;;10.80;7.38;;;7.50;99.40;;;;;;5071966;28;20178;-48
2022/03/13 06:42:48;;;;;;;11.00;7.70;;;7.50;99.30;;;;;;5072047;28;20166;-48
2022/03/13 06:45:14;;;;;;;13.05;7.53;;;7.50;99.60;;;;;;5072074;28;20210;-48
2022/03/13 06:47:41;;;;;;;11.05;8.18;;;7.50;99.70;;;;;;5071598;28;20222;-48
2022/03/13 06:50:08;;;;;;;11.70;7.60;;;7.60;99.70;;;;;;5071699;28;20174;-48
2022/03/13 06:52:34;;;;;;;11.18;7.43;;;7.60;99.70;;;;;;5071991;28;20162;-49
2022/03/13 06:55:00;;;;;;;11.45;7.47;;;7.60;99.00;;;;;;5071893;28;20178;-48
2022/03/13 06:57:26;;;;;;;14.50;6.97;;;7.60;99.20;;;;;;5071666;28;20182;-48
2022/03/13 06:59:52;;;;;;;12.57;6.63;;;7.60;99.20;;;;;;5071681;28;20162;-48
2022/03/13 07:02:17;;;;;;;8.85;6.97;;;7.60;98.80;;;;;;5072700;28;20188;-48
2022/03/13 07:04:43;;;;;;;12.95;8.18;;;7.50;98.60;;;;;;5075597;28;20230;-48
2022/03/13 07:07:08;;;;;;;12.55;7.63;;;7.60;99.30;;;;;;5075615;28;20162;-48
2022/03/13 07:09:34;;;;;;;11.15;7.60;;;7.60;99.60;;;;;;5057816;28;20584;-49
2022/03/13 07:12:00;;;;;;;12.60;7.43;;;7.70;99.90;;;;;;5075743;28;20170;-48
2022/03/13 07:14:26;;;;;;;11.30;8.05;;;7.70;99.30;;;;;;5075444;28;20245;-50
2022/03/13 07:16:52;;;;;;;13.88;8.15;;;7.80;99.70;;;;;;5075027;28;20638;-48
2022/03/13 07:19:18;;;;;;;12.00;7.72;;;7.80;99.80;;;;;;5075630;28;20295;-48
2022/03/13 07:21:44;;;;;;;11.23;7.90;;;7.80;99.50;;;;;;5075599;28;20173;-48
2022/03/13 07:24:10;;;;;;;13.75;8.65;;;7.80;99.00;;;;;;5075247;28;20181;-50
2022/03/13 07:26:35;;;;;;;10.77;7.13;;;7.90;98.70;;;;;;5074720;28;20188;-48
2022/03/13 07:29:01;;;;;;;12.45;7.63;;;7.90;98.30;;;;;;5075378;28;20170;-48
2022/03/13 07:31:29;;;;;;;13.55;7.97;;;7.90;98.10;;;;;;5074889;28;20659;-48
2022/03/13 07:33:54;;;;;;;12.52;8.30;;;8.00;98.40;;;;;;5075169;28;20174;-49
2022/03/13 07:36:20;;;;;;;10.98;7.32;;;8.00;98.30;;;;;;5074575;28;20206;-50
2022/03/13 07:38:46;;;;;;;12.93;7.80;;;8.10;97.80;;;;;;5075046;28;20170;-48
2022/03/13 07:41:12;;;;;;;10.98;7.85;;;8.20;97.60;;;;;;5074610;28;20264;-48
2022/03/13 07:43:37;;;;;;;11.20;7.78;;;8.30;97.00;;;;;;5074115;28;20304;-48
2022/03/13 07:46:03;;;;;;;10.65;8.02;;;8.30;97.50;;;;;;5074808;28;20739;-48
2022/03/13 07:48:29;;;;;;;11.85;7.85;;;8.30;97.60;;;;;;5074215;28;20736;-49
2022/03/13 07:50:56;;;;;;;10.68;8.02;;;8.40;97.80;;;;;;5074930;28;20200;-48
2022/03/13 07:53:26;;;;;;;14.35;8.57;;;8.50;96.50;;;;;;5073977;28;20607;-48
2022/03/13 07:55:52;;;;;;;11.43;8.18;;;8.60;96.40;;;;;;5074497;28;20213;-48
2022/03/13 07:58:18;;;;;;;13.30;8.10;;;8.80;96.60;;;;;;5074345;28;20712;-50
2022/03/13 08:00:44;;;;;;;15.93;8.00;;;8.90;95.80;;;;;;5074145;28;20173;-47
2022/03/13 08:03:09;;;;;;;8.77;7.32;;;8.90;95.20;;;;;;5074534;28;20169;-48
2022/03/13 08:05:35;;;;;;;14.52;8.10;;;8.90;95.00;;;;;;5056820;28;20529;-48
2022/03/13 08:08:00;;;;;;;10.20;7.68;;;8.80;94.60;;;;;;5074448;28;20166;-48
2022/03/13 08:10:27;;;;;;;10.45;7.18;;;8.90;94.10;;;;;;5072289;28;20624;-48
2022/03/13 08:12:53;;;;;;;17.52;8.85;;;8.80;93.90;;;;;;5072114;28;20173;-48
2022/03/13 08:15:20;;;;;;;11.98;7.80;;;8.70;93.70;;;;;;5072339;28;20190;-48
2022/03/13 08:17:45;;;;;;;11.77;7.78;;;8.80;94.10;;;;;;5072239;28;20559;-48
2022/03/13 08:20:12;;;;;;;10.02;7.72;;;8.80;94.10;;;;;;5072163;28;20253;-49
2022/03/13 08:22:37;;;;;;;13.65;8.57;;;8.80;93.50;;;;;;5072427;28;20766;-49
2022/03/13 08:25:05;;;;;;;12.30;7.55;;;8.90;93.40;;;;;;5074391;28;20260;-49
2022/03/13 08:27:31;;;;;;;10.38;7.90;;;9.00;93.20;;;;;;5073974;28;20170;-48
2022/03/13 08:29:58;;;;;;;15.35;7.80;;;9.00;93.30;;;;;;5073472;28;20177;-49
2022/03/13 08:32:24;;;;;;;12.68;8.07;;;9.20;92.90;;;;;;5073780;28;20177;-48
2022/03/13 08:34:50;;;;;;;11.45;7.80;;;9.20;92.80;;;;;;5073897;28;20537;-49
2022/03/13 08:37:16;;;;;;;12.57;8.15;;;9.30;92.50;;;;;;5073287;28;20678;-48
2022/03/13 08:39:42;;;;;;;12.20;8.57;;;9.30;92.00;;;;;;5073697;28;20198;-49
2022/03/13 08:42:07;;;;;;;18.55;8.38;;;9.30;91.80;;;;;;5073399;28;20197;-49
2022/03/13 08:44:33;;;;;;;16.10;8.43;;;9.40;91.80;;;;;;5073387;28;20639;-49
2022/03/13 08:46:59;;;;;;;12.38;8.40;;;9.40;90.90;;;;;;5073255;28;20225;-48
2022/03/13 08:49:25;;;;;;;11.82;8.50;;;9.40;91.40;;;;;;5073524;28;20174;-48
2022/03/13 08:51:50;;;;;;;12.55;7.72;;;9.40;91.60;;;;;;5073204;28;20170;-49
2022/03/13 08:54:16;;;;;;;10.88;8.57;;;9.30;90.90;;;;;;5073791;28;20189;-49
2022/03/13 08:56:46;;;;;;;12.60;7.82;;;9.30;90.90;;;;;;5073490;28;20597;-49
2022/03/13 08:59:12;;;;;;;12.10;8.05;;;9.30;91.10;;;;;;5073169;28;20654;-49
2022/03/13 09:01:37;;;;;;;11.63;8.02;;;9.30;91.20;;;;;;5073187;28;20167;-49
2022/03/13 09:04:03;;;;;;;10.95;7.30;;;9.40;90.90;;;;;;5073426;28;20634;-49
2022/03/13 09:06:29;;;;;;;14.68;7.88;;;9.40;90.70;;;;;;5073021;28;20194;-48
2022/03/13 09:08:54;;;;;;;14.15;7.65;;;9.40;90.60;;;;;;5072972;28;20649;-48
2022/03/13 09:11:20;;;;;;;14.90;8.65;;;9.40;90.60;;;;;;5072978;28;20177;-49
2022/03/13 09:13:46;;;;;;;13.82;8.18;;;9.50;91.10;;;;;;5072972;28;20185;-49
2022/03/13 09:16:11;;;;;;;10.25;7.85;;;9.50;90.80;;;;;;5054718;28;20194;-48
2022/03/13 09:18:37;;;;;;;10.52;8.07;;;9.60;91.60;;;;;;5073041;28;20219;-48
2022/03/13 09:21:03;;;;;;;13.63;8.57;;;9.60;90.70;;;;;;5073132;28;20166;-48
2022/03/13 09:23:29;;;;;;;17.92;10.38;;;9.70;90.80;;;;;;5073150;28;20237;-48
2022/03/13 09:25:55;;;;;;;13.40;9.68;;;9.60;91.00;;;;;;5072109;28;20166;-49
2022/03/13 09:28:22;;;;;;;13.27;8.27;;;9.70;91.50;;;;;;5072694;28;20171;-49
2022/03/13 09:30:48;;;;;;;10.85;8.02;;;9.80;91.10;;;;;;5072774;28;20650;-49
2022/03/13 09:33:14;;;;;;;13.15;8.30;;;8.60;90.30;;;;;;5072696;28;20167;-48
2022/03/13 09:35:39;;;;;;;13.15;8.10;;;10.30;90.30;;;;;;5054875;28;20232;-49
2022/03/13 09:38:05;;;;;;;12.75;8.30;;;10.60;89.70;;;;;;5072999;28;20227;-48
2022/03/13 09:40:33;;;;;;;11.55;8.23;;;10.90;89.00;;;;;;5072898;28;20635;-48
2022/03/13 09:43:00;;;;;;;10.63;7.88;;;11.10;88.90;;;;;;5072554;28;20254;-49
2022/03/13 09:45:26;;;;;;;12.80;8.35;;;11.30;89.10;;;;;;5072794;28;20181;-49
2022/03/13 09:47:53;;;;;;;9.50;7.90;;;11.50;87.80;;;;;;5072207;28;20221;-49
2022/03/13 09:50:19;;;;;;;13.27;8.65;;;11.40;85.40;;;;;;5072292;28;20163;-49
2022/03/13 09:52:45;;;;;;;12.00;8.73;;;11.60;87.00;;;;;;5072504;28;20201;-49
2022/03/13 09:55:12;;;;;;;14.15;8.85;;;11.70;86.60;;;;;;5072540;28;20682;-49
2022/03/13 09:57:40;;;;;;;15.45;9.70;;;11.90;86.50;;;;;;5072341;28;20170;-49
2022/03/13 10:00:09;;;;;;;13.77;10.02;;;12.00;85.80;;;;;;5072612;28;20202;-49
2022/03/13 10:02:39;;;;;;;12.95;8.88;;;12.00;84.50;;;;;;5072242;28;20264;-49
2022/03/13 10:05:13;;;;;;;18.05;8.98;;;12.10;83.60;;;;;;5072569;28;20193;-49
2022/03/13 10:08:01;;;;;;;12.60;9.52;;;12.10;83.30;;;;;;5072221;28;20643;-49
2022/03/13 10:10:30;;;;;;;12.50;9.52;;;12.30;84.80;;;;;;5072029;28;20189;-49
2022/03/13 10:12:55;;;;;;;12.00;9.82;;;12.40;84.60;;;;;;5072385;28;20180;-49
2022/03/13 10:15:21;;;;;;;18.45;10.25;;;12.50;84.00;;;;;;5072025;28;20659;-49
2022/03/13 10:17:48;;;;;;;12.63;10.05;;;12.60;84.80;;;;;;5072135;28;20170;-48
2022/03/13 10:20:23;;;;;;;13.90;10.32;;;12.70;85.20;;;;;;5072313;28;20173;-49
2022/03/13 10:22:59;;;;;;;12.75;9.48;;;12.70;84.10;;;;;;5072203;28;20677;-49
2022/03/13 10:25:36;;;;;;;15.02;9.60;;;12.80;84.20;;;;;;5071901;28;20165;-49
2022/03/13 10:28:24;;;;;;;12.00;9.55;;;13.00;84.00;;;;;;5072313;28;20165;-49
2022/03/13 10:30:58;;;;;;;12.73;9.77;;;13.00;84.10;;;;;;5072074;28;20192;-49
2022/03/13 10:33:26;;;;;;;13.93;10.38;;;13.00;84.50;;;;;;5071834;28;20226;-49
2022/03/13 10:36:16;;;;;;;16.17;11.23;;;13.20;84.80;;;;;;5071883;28;20210;-48
2022/03/13 10:38:43;;;;;;;14.02;10.35;;;13.20;83.30;;;;;;5072028;28;20166;-49
2022/03/13 10:41:09;;;;;;;17.77;10.75;;;13.40;83.90;;;;;;5071940;28;20204;-49
2022/03/13 10:43:51;;;;;;;13.70;10.10;;;13.60;85.10;;;;;;5072215;28;20185;-49
2022/03/13 10:46:28;;;;;;;13.27;9.88;;;13.50;84.00;;;;;;5071657;28;20566;-49
2022/03/13 10:48:55;;;;;;;13.18;10.63;;;13.70;84.30;;;;;;5071566;28;20177;-49
2022/03/13 10:51:45;;;;;;;14.13;10.13;;;13.70;84.60;;;;;;5071704;28;20173;-49
2022/03/13 10:54:28;;;;;;;14.02;10.52;;;13.80;83.90;;;;;;5053695;28;20174;-49
2022/03/13 10:57:11;;;;;;;14.43;10.32;;;13.90;83.70;;;;;;5071598;28;20209;-48
2022/03/13 10:59:39;;;;;;;16.65;10.45;;;14.10;83.60;;;;;;5071667;28;20178;-49
2022/03/13 11:02:19;;;;;;;16.83;11.02;;;14.30;83.80;;;;;;5071673;28;20681;-48
2022/03/13 11:04:52;;;;;;;15.20;11.48;;;14.40;83.70;;;;;;5071805;28;20174;-48
2022/03/13 11:07:20;;;;;;;20.02;15.50;;;14.40;83.70;;;;;;5071824;28;20174;-49
2022/03/13 11:09:45;;;;;;;17.52;14.10;;;14.60;84.80;;;;;;5071812;28;20180;-49
2022/03/13 11:12:20;;;;;;;17.80;14.70;;;14.60;85.30;;;;;;5071789;28;20686;-49
2022/03/13 11:14:49;;;;;;;20.73;15.90;;;14.70;84.30;;;;;;5071444;28;20165;-48
2022/03/13 11:17:16;;;;;;;40.63;31.70;;;14.70;83.60;;;;;;5071636;28;20214;-48
2022/03/13 11:19:45;;;;;;;17.13;13.35;;;14.90;83.90;;;;;;5071397;28;20579;-49
2022/03/13 11:22:11;;;;;;;21.90;17.90;;;14.90;84.70;;;;;;5071324;28;20171;-48
2022/03/13 11:24:38;;;;;;;16.38;11.70;;;14.90;84.60;;;;;;5071494;28;20170;-48
2022/03/13 11:27:11;;;;;;;16.08;11.38;;;15.00;84.80;;;;;;5071716;28;20158;-48
2022/03/13 11:29:44;;;;;;;19.63;12.63;;;15.10;84.50;;;;;;5071209;28;20681;-48
2022/03/13 11:32:29;;;;;;;17.80;13.10;;;15.20;85.30;;;;;;5071536;28;20315;-48
2022/03/13 11:37:45;;;;;;;21.00;15.05;;;15.30;85.40;;;;;;5071534;28;20281;-49
2022/03/13 11:40:12;;;;;;;17.95;12.75;;;15.60;86.80;;;;;;5071142;28;20253;-49
2022/03/13 11:42:56;;;;;;;21.92;16.35;;;15.60;86.50;;;;;;5071384;28;20185;-48
2022/03/13 11:45:29;;;;;;;20.45;11.88;;;15.70;86.80;;;;;;5071489;28;20176;-48
2022/03/13 11:47:55;;;;;;;21.23;16.15;;;15.60;87.00;;;;;;5071378;28;20252;-49
2022/03/13 11:50:48;;;;;;;17.42;12.65;;;15.80;87.80;;;;;;5074793;28;20302;-48
2022/03/13 11:53:50;;;;;;;21.27;14.98;;;15.90;87.70;;;;;;5074666;28;20636;-48
2022/03/13 11:56:27;;;;;;;14.80;11.70;;;15.90;88.50;;;;;;5070492;28;20285;-48
2022/03/13 11:58:59;;;;;;;17.30;12.15;;;16.00;86.60;;;;;;5074608;28;20164;-48
2022/03/13 12:01:27;;;;;;;17.60;12.40;;;16.20;86.60;;;;;;5074449;28;20197;-48
2022/03/13 12:04:09;;;;;;;15.65;11.80;;;16.10;85.20;;;;;;5074426;28;20208;-49
2022/03/13 12:06:56;;;;;;;17.70;12.05;;;16.30;86.40;;;;;;5074408;28;20581;-48
2022/03/13 12:09:41;;;;;;;17.63;12.35;;;16.30;86.80;;;;;;5074480;28;20162;-48
2022/03/13 12:12:08;;;;;;;16.63;11.48;;;16.30;85.70;;;;;;5074613;28;20180;-48
2022/03/13 12:14:54;;;;;;;17.23;12.60;;;16.50;86.90;;;;;;5056959;28;20171;-48
2022/03/13 12:17:25;;;;;;;15.40;11.10;;;16.40;86.30;;;;;;5074501;28;20209;-48
2022/03/13 12:19:51;;;;;;;14.85;10.98;;;16.50;86.30;;;;;;5074182;28;20173;-49
2022/03/13 12:22:18;;;;;;;15.80;11.18;;;16.50;85.50;;;;;;5074203;28;20639;-48
2022/03/13 12:24:54;;;;;;;14.50;11.85;;;16.30;85.30;;;;;;5074170;28;20170;-48
2022/03/13 12:27:22;;;;;;;17.65;11.57;;;16.40;86.30;;;;;;5074099;28;20661;-48
2022/03/13 12:30:00;;;;;;;16.40;13.63;;;16.50;86.80;;;;;;5074253;28;20213;-48
2022/03/13 12:32:30;;;;;;;14.23;11.73;;;16.70;86.60;;;;;;5074076;28;20197;-48
2022/03/13 12:34:57;;;;;;;15.85;12.50;;;16.70;83.40;;;;;;5073736;28;20177;-48
2022/03/13 12:37:25;;;;;;;15.35;11.40;;;16.70;82.30;;;;;;5073980;28;20213;-48
2022/03/13 12:39:55;;;;;;;21.13;11.95;;;16.60;81.40;;;;;;5074145;28;20174;-48
2022/03/13 12:42:23;;;;;;;16.02;11.68;;;16.70;82.10;;;;;;5073531;28;20256;-48
2022/03/13 12:45:05;;;;;;;16.55;11.52;;;16.80;83.00;;;;;;5073015;28;20170;-48
2022/03/13 12:47:36;;;;;;;14.27;11.02;;;16.80;82.60;;;;;;5073929;28;20217;-48
2022/03/13 12:50:03;;;;;;;17.70;11.48;;;16.80;82.70;;;;;;5072832;28;20192;-48